Cincinnati, Ohio
Traffic Map
Current Weather Conditions
Cincinnati, Ohio
Scattered Clouds
Scattered Clouds
65°
Feels Like: 65°
Wind Chill: 65° Ceiling: Unl
Heat Index: 65° Visibility: 10mi
Dew Point: 57° Wind: 0mph
Humidity: 75% Direction: ° ()
Pressure: 30.12in Gusts: 0mph
Raw Report DataKLUK 251053Z 00000KT 10SM FEW060 SCT110 18/14 A3012 RMK AO2 SLP194 T01830139
Traffic Incident Summary
Active as of:
Severity:
Category:
InformationThere was an issue retrieving the traffic information for this location. Please try a different location or try again shortly.
Advertisements
Track Severe Weather on mobile